M I D A S
Marine Information and Data Acquisition System
Tripno 1560 of the Zeeleeuw from 2008-09-05 06:16:24 to 2008-09-05 16:24:15
Back to CruiseResearch ActivitiesStationsMapUnderway DataData graphs

EquipmentUnitsComments
TimeDGPSUTC
LatitudeDGPSDM.mWGS84
LongitudeDGPSDM.mWGS84
SpeedMeteo Stationm/sRelative wind speed
DirectionMeteo StationdegRelative wind direction
TemperatureMeteo Stationdeg CelciusAir temperature
PressureMeteo StationPaAtmospheric pressure
HumidityMeteo Station%Relative humidity
Missing or incorrect values are displayed as -999
Metereological data collected by the RV Zeeleeuw from 2008-09-05 06:15:47 to 2008-09-05 16:25:32
Time Latitude Longitude Speed Direction Temperature Pressure Humidity
2008-09-05 06:16 51°13.632 2°55.996 -999 -999 -999 -999 -999
2008-09-05 06:17 51°13.659 2°55.898 -999 -999 -999 -999 -999
2008-09-05 06:18 51°13.685 2°55.799 -999 -999 -999 -999 -999
2008-09-05 06:19 51°13.69 2°55.726 -999 -999 -999 -999 -999
2008-09-05 06:20 51°13.697 2°55.72 -999 -999 -999 -999 -999
2008-09-05 06:21 51°13.749 2°55.709 -999 -999 -999 -999 -999
2008-09-05 06:22 51°13.857 2°55.617 -999 -999 -999 -999 -999
2008-09-05 06:23 51°13.986 2°55.525 -999 -999 -999 -999 -999
2008-09-05 06:24 51°14.117 2°55.421 -999 -999 -999 -999 -999
2008-09-05 06:25 51°14.238 2°55.282 -999 -999 -999 -999 -999
2008-09-05 06:26 51°14.34 2°55.098 -999 -999 -999 -999 -999
2008-09-05 06:27 51°14.43 2°54.887 -999 -999 -999 -999 -999
2008-09-05 06:28 51°14.556 2°54.707 -999 -999 -999 -999 -999
2008-09-05 06:29 51°14.702 2°54.56 -999 -999 -999 -999 -999
2008-09-05 06:30 51°14.852 2°54.419 -999 -999 -999 -999 -999
2008-09-05 06:31 51°15.011 2°54.273 -999 -999 -999 -999 -999
2008-09-05 06:32 51°15.179 2°54.128 -999 -999 -999 -999 -999
2008-09-05 06:33 51°15.351 2°53.979 -999 -999 -999 -999 -999
2008-09-05 06:34 51°15.526 2°53.823 -999 -999 -999 -999 -999
2008-09-05 06:35 51°15.704 2°53.667 -999 -999 -999 -999 -999
2008-09-05 06:36 51°15.881 2°53.505 -999 -999 -999 -999 -999
2008-09-05 06:37 51°16.059 2°53.345 -999 -999 -999 -999 -999
2008-09-05 06:38 51°16.242 2°53.202 -999 -999 -999 -999 -999
2008-09-05 06:39 51°16.426 2°53.059 -999 -999 -999 -999 -999
2008-09-05 06:40 51°16.613 2°52.928 -999 -999 -999 -999 -999
2008-09-05 06:41 51°16.798 2°52.787 -999 -999 -999 -999 -999
2008-09-05 06:42 51°16.983 2°52.644 -999 -999 -999 -999 -999
2008-09-05 06:43 51°17.167 2°52.499 -999 -999 -999 -999 -999
2008-09-05 06:44 51°17.339 2°52.326 -999 -999 -999 -999 -999
2008-09-05 06:45 51°17.488 2°52.098 -999 -999 -999 -999 -999
2008-09-05 06:46 51°17.601 2°51.827 -999 -999 -999 -999 -999
2008-09-05 06:47 51°17.709 2°51.549 -999 -999 -999 -999 -999
2008-09-05 06:48 51°17.801 2°51.256 -999 -999 -999 -999 -999
2008-09-05 06:49 51°17.894 2°50.964 -999 -999 -999 -999 -999
2008-09-05 06:50 51°17.999 2°50.681 -999 -999 -999 -999 -999
2008-09-05 06:51 51°18.106 2°50.4 -999 -999 -999 -999 -999
2008-09-05 06:52 51°18.207 2°50.113 -999 -999 -999 -999 -999
2008-09-05 06:53 51°18.304 2°49.823 -999 -999 -999 -999 -999
2008-09-05 06:54 51°18.382 2°49.518 -999 -999 -999 -999 -999
2008-09-05 06:55 51°18.457 2°49.212 -999 -999 -999 -999 -999
2008-09-05 06:56 51°18.529 2°48.904 -999 -999 -999 -999 -999
2008-09-05 06:57 51°18.589 2°48.588 -999 -999 -999 -999 -999
2008-09-05 06:58 51°18.644 2°48.27 -999 -999 -999 -999 -999
2008-09-05 06:59 51°18.699 2°47.952 -999 -999 -999 -999 -999
2008-09-05 07:00 51°18.762 2°47.638 -999 -999 -999 -999 -999
2008-09-05 07:01 51°18.825 2°47.323 -999 -999 -999 -999 -999
2008-09-05 07:02 51°18.889 2°47.01 -999 -999 -999 -999 -999
2008-09-05 07:03 51°18.95 2°46.697 -999 -999 -999 -999 -999
2008-09-05 07:04 51°19.005 2°46.38 -999 -999 -999 -999 -999
2008-09-05 07:05 51°19.058 2°46.062 -999 -999 -999 -999 -999
2008-09-05 07:06 51°19.111 2°45.746 -999 -999 -999 -999 -999
2008-09-05 07:07 51°19.164 2°45.429 -999 -999 -999 -999 -999
2008-09-05 07:08 51°19.22 2°45.11 -999 -999 -999 -999 -999
2008-09-05 07:09 51°19.27 2°44.787 -999 -999 -999 -999 -999
2008-09-05 07:10 51°19.307 2°44.461 -999 -999 -999 -999 -999
2008-09-05 07:11 51°19.351 2°44.14 -999 -999 -999 -999 -999
2008-09-05 07:12 51°19.395 2°43.821 -999 -999 -999 -999 -999
2008-09-05 07:13 51°19.44 2°43.502 -999 -999 -999 -999 -999
2008-09-05 07:14 51°19.486 2°43.183 -999 -999 -999 -999 -999
2008-09-05 07:15 51°19.537 2°42.866 -999 -999 -999 -999 -999
2008-09-05 07:16 51°19.583 2°42.546 -999 -999 -999 -999 -999
2008-09-05 07:17 51°19.631 2°42.228 -999 -999 -999 -999 -999
2008-09-05 07:18 51°19.677 2°41.908 -999 -999 -999 -999 -999
2008-09-05 07:19 51°19.72 2°41.588 -999 -999 -999 -999 -999
2008-09-05 07:20 51°19.767 2°41.268 -999 -999 -999 -999 -999
2008-09-05 07:21 51°19.817 2°40.947 -999 -999 -999 -999 -999
2008-09-05 07:22 51°19.865 2°40.625 -999 -999 -999 -999 -999
2008-09-05 07:23 51°19.909 2°40.302 -999 -999 -999 -999 -999
2008-09-05 07:24 51°19.955 2°39.982 -999 -999 -999 -999 -999
2008-09-05 07:25 51°20.003 2°39.661 -999 -999 -999 -999 -999
2008-09-05 07:26 51°20.051 2°39.34 -999 -999 -999 -999 -999
2008-09-05 07:27 51°20.097 2°39.018 -999 -999 -999 -999 -999
2008-09-05 07:28 51°20.143 2°38.694 -999 -999 -999 -999 -999
2008-09-05 07:29 51°20.187 2°38.369 -999 -999 -999 -999 -999
2008-09-05 07:30 51°20.229 2°38.045 -999 -999 -999 -999 -999
2008-09-05 07:31 51°20.275 2°37.721 -999 -999 -999 -999 -999
2008-09-05 07:32 51°20.322 2°37.397 -999 -999 -999 -999 -999
2008-09-05 07:33 51°20.367 2°37.073 -999 -999 -999 -999 -999
2008-09-05 07:34 51°20.423 2°36.752 -999 -999 -999 -999 -999
2008-09-05 07:35 51°20.482 2°36.433 -999 -999 -999 -999 -999
2008-09-05 07:36 51°20.542 2°36.115 -999 -999 -999 -999 -999
2008-09-05 07:37 51°20.599 2°35.792 -999 -999 -999 -999 -999
2008-09-05 07:38 51°20.656 2°35.471 -999 -999 -999 -999 -999
2008-09-05 07:39 51°20.71 2°35.149 -999 -999 -999 -999 -999
2008-09-05 07:40 51°20.768 2°34.828 -999 -999 -999 -999 -999
2008-09-05 07:41 51°20.828 2°34.508 -999 -999 -999 -999 -999
2008-09-05 07:42 51°20.886 2°34.191 -999 -999 -999 -999 -999
2008-09-05 07:43 51°20.944 2°33.872 -999 -999 -999 -999 -999
2008-09-05 07:44 51°21.002 2°33.559 9.5 282 -999 -999 -999
2008-09-05 07:45 51°21.059 2°33.252 9.6 280 14.9 99990 93
2008-09-05 07:46 51°21.119 2°32.944 8.3 282 14.9 100000 93
2008-09-05 07:47 51°21.259 2°32.703 3.2 81 14.9 100010 93
2008-09-05 07:48 51°21.451 2°32.617 2.3 44 14.9 100010 93
2008-09-05 07:49 51°21.659 2°32.569 1.8 79 14.9 100010 93
2008-09-05 07:50 51°21.857 2°32.502 1.3 79 15 100000 93
2008-09-05 07:51 51°22.058 2°32.424 2.4 75 15.1 100010 93
2008-09-05 07:52 51°22.259 2°32.354 1.3 83 15.1 100000 92
2008-09-05 07:53 51°22.463 2°32.273 3.5 76 15.1 100000 92
2008-09-05 07:54 51°22.659 2°32.207 3.6 45 15.1 100000 92
2008-09-05 07:55 51°22.86 2°32.15 2.6 77 15 100000 92
2008-09-05 07:56 51°23.057 2°32.075 2 81 15.1 99990 92
2008-09-05 07:57 51°23.254 2°31.998 3.3 80 15.1 99990 92
2008-09-05 07:58 51°23.453 2°31.928 2.9 76 15.1 99980 91
2008-09-05 07:59 51°23.655 2°31.856 4 79 15.1 99990 91
2008-09-05 08:00 51°23.86 2°31.782 3.9 78 15 99990 91
2008-09-05 08:01 51°24.056 2°31.714 3.7 82 15.1 99990 91
2008-09-05 08:02 51°24.255 2°31.651 4.7 80 15.1 100000 91
2008-09-05 08:03 51°24.459 2°31.612 4 81 15.1 99990 91
2008-09-05 08:04 51°24.613 2°31.612 7.2 42 15.1 100000 91
2008-09-05 08:05 51°24.717 2°31.614 7.5 78 15.1 99990 91
2008-09-05 08:06 51°24.806 2°31.625 8.4 39 15.1 99990 92
2008-09-05 08:07 51°24.889 2°31.654 8.6 40 15 99980 91
2008-09-05 08:08 51°24.953 2°31.68 8.9 36 15.1 100000 91
2008-09-05 08:09 51°24.99 2°31.702 10.8 25 15.2 99980 92
2008-09-05 08:10 51°25.013 2°31.716 10.1 25 15.2 99980 92
2008-09-05 08:11 51°25.028 2°31.724 9.3 13 15.1 99970 92
2008-09-05 08:12 51°25.041 2°31.724 9.4 16 15.2 99960 92
2008-09-05 08:13 51°25.053 2°31.717 11.1 19 15.1 99960 92
2008-09-05 08:14 51°25.066 2°31.707 11.4 13 15.1 99960 92
2008-09-05 08:15 51°25.08 2°31.698 10.4 15 15.1 99960 91
2008-09-05 08:16 51°25.093 2°31.689 12.6 10 15.1 99960 92
2008-09-05 08:17 51°25.107 2°31.677 10.3 18 15.1 99950 92
2008-09-05 08:18 51°25.122 2°31.662 9.9 17 15.2 99970 93
2008-09-05 08:19 51°25.137 2°31.646 10 18 15.3 99950 92
2008-09-05 08:20 51°25.15 2°31.63 10.5 18 15.3 99950 92
2008-09-05 08:21 51°25.166 2°31.637 10.6 11 15.3 99950 92
2008-09-05 08:22 51°25.163 2°31.676 13.2 282 15.2 99950 91
2008-09-05 08:23 51°25.123 2°31.689 12.1 279 15.2 99960 91
2008-09-05 08:24 51°25.06 2°31.683 15.2 283 15.2 99960 91
2008-09-05 08:25 51°24.988 2°31.697 15.1 279 15.2 99980 90
2008-09-05 08:26 51°24.93 2°31.697 11.9 278 15.2 99980 90
2008-09-05 08:27 51°24.901 2°31.701 12.2 283 15.3 99990 91
2008-09-05 08:28 51°24.898 2°31.704 9.9 1 15.2 99970 89
2008-09-05 08:29 51°24.911 2°31.698 10.7 14 15.2 99970 90
2008-09-05 08:30 51°24.925 2°31.687 9.5 23 15.3 99980 91
2008-09-05 08:31 51°24.939 2°31.671 12.1 17 15.4 99970 91
2008-09-05 08:32 51°24.952 2°31.652 9.5 22 15.3 99970 90
2008-09-05 08:33 51°24.965 2°31.631 10.1 23 15.3 99970 91
2008-09-05 08:34 51°24.977 2°31.61 11.8 20 15.3 99970 91
2008-09-05 08:35 51°24.989 2°31.589 11.6 22 15.3 99960 90
2008-09-05 08:36 51°25.001 2°31.566 10.8 17 15.3 99960 90
2008-09-05 08:37 51°25.013 2°31.543 9 22 15.4 99960 92
2008-09-05 08:38 51°25.024 2°31.523 9.8 22 15.4 99960 91
2008-09-05 08:39 51°25.036 2°31.504 11.8 15 15.4 99950 91
2008-09-05 08:40 51°25.048 2°31.484 10.5 18 15.3 99940 90
2008-09-05 08:41 51°25.058 2°31.463 9.1 20 15.3 99940 90
2008-09-05 08:42 51°25.061 2°31.498 11.6 353 15.4 99940 90
2008-09-05 08:43 51°25.034 2°31.555 12.3 277 15.3 99940 89
2008-09-05 08:44 51°25.001 2°31.596 12 341 15.3 99950 89
2008-09-05 08:45 51°24.976 2°31.627 11.7 351 15.5 99950 91
2008-09-05 08:46 51°24.978 2°31.657 11.8 13 15.4 99930 90
2008-09-05 08:47 51°24.987 2°31.654 11.4 19 15.4 99960 91
2008-09-05 08:48 51°24.995 2°31.623 9.2 26 15.3 99970 89
2008-09-05 08:49 51°25.002 2°31.595 10.8 33 15.4 99970 89
2008-09-05 08:50 51°25.01 2°31.569 10.2 28 15.4 99970 89
2008-09-05 08:51 51°25.019 2°31.544 9.9 22 15.5 99960 90
2008-09-05 08:52 51°25.027 2°31.523 12.2 21 15.4 99960 89
2008-09-05 08:53 51°25.035 2°31.498 10.9 24 15.4 99960 89
2008-09-05 08:54 51°25.041 2°31.481 11.1 14 15.5 99960 91
2008-09-05 08:55 51°25.045 2°31.483 11.7 9 15.4 99950 90
2008-09-05 08:56 51°25.045 2°31.49 9.1 1 15.4 99950 89
2008-09-05 08:57 51°25.047 2°31.487 8.9 359 15.5 99950 92
2008-09-05 08:58 51°25.047 2°31.485 11.4 357 15.6 99950 91
2008-09-05 08:59 51°25.047 2°31.486 11.8 355 15.5 99950 91
2008-09-05 09:00 51°25.045 2°31.487 11.2 355 15.5 99950 90
2008-09-05 09:01 51°25.045 2°31.484 11.5 359 15.5 99960 90
2008-09-05 09:02 51°25.045 2°31.484 9.8 357 15.5 99950 90
2008-09-05 09:03 51°25.045 2°31.486 10.8 -999 15.5 99940 89
2008-09-05 09:04 51°25.045 2°31.485 9.7 359 15.5 99940 90
2008-09-05 09:05 51°25.044 2°31.483 9.5 356 15.6 99940 89
2008-09-05 09:06 51°25.041 2°31.484 11.3 357 15.6 99930 90
2008-09-05 09:07 51°25.041 2°31.481 10.1 1 15.6 99940 90
2008-09-05 09:08 51°25.039 2°31.482 9.9 355 15.6 99940 89
2008-09-05 09:09 51°25.036 2°31.482 9.7 359 15.7 99930 90
2008-09-05 09:10 51°25.035 2°31.479 9.3 359 15.7 99930 90
2008-09-05 09:11 51°25.034 2°31.478 9.6 3 15.7 99920 90
2008-09-05 09:12 51°25.032 2°31.478 8.5 6 15.7 99910 89
2008-09-05 09:13 51°25.03 2°31.479 10.8 359 15.7 99920 89
2008-09-05 09:14 51°25.031 2°31.476 9.1 7 15.8 99920 90
2008-09-05 09:15 51°25.03 2°31.477 8.6 4 15.9 99920 91
2008-09-05 09:16 51°25.028 2°31.478 10.9 8 15.9 99910 91
2008-09-05 09:17 51°25.029 2°31.476 8.9 6 15.8 99910 89
2008-09-05 09:18 51°25.028 2°31.477 8.3 8 15.8 99920 90
2008-09-05 09:19 51°25.026 2°31.479 8 6 15.9 99920 90
2008-09-05 09:20 51°25.025 2°31.477 10 6 15.8 99910 89
2008-09-05 09:21 51°25.025 2°31.478 10.8 8 15.9 99910 90
2008-09-05 09:22 51°25.023 2°31.478 8.3 8 15.8 99900 88
2008-09-05 09:23 51°25.021 2°31.479 8.5 4 15.9 99910 90
2008-09-05 09:24 51°25.019 2°31.479 9.6 5 15.9 99910 90
2008-09-05 09:25 51°25.018 2°31.479 11.2 9 15.9 99900 90
2008-09-05 09:26 51°25.017 2°31.479 8.2 8 15.9 99900 90
2008-09-05 09:27 51°25.017 2°31.478 11.6 13 15.9 99900 90
2008-09-05 09:28 51°25.017 2°31.478 8.7 7 15.9 99890 90
2008-09-05 09:29 51°25.019 2°31.475 9.4 7 16 99890 91
2008-09-05 09:30 51°25.016 2°31.478 9.4 9 16 99890 92
2008-09-05 09:31 51°25.016 2°31.478 10.7 8 15.9 99880 91
2008-09-05 09:32 51°25.016 2°31.477 10 10 15.9 99890 91
2008-09-05 09:33 51°25.017 2°31.478 11.5 9 15.9 99890 91
2008-09-05 09:34 51°25.017 2°31.479 9.3 10 15.9 99880 91
2008-09-05 09:35 51°25.015 2°31.478 7.5 7 16 99890 93
2008-09-05 09:36 51°25.015 2°31.477 9.8 7 15.9 99870 92
2008-09-05 09:37 51°25.015 2°31.478 11 7 15.9 99870 91
2008-09-05 09:38 51°25.015 2°31.478 11.1 8 15.9 99870 92
2008-09-05 09:39 51°25.015 2°31.477 11.4 8 15.9 99880 92
2008-09-05 09:40 51°25.013 2°31.479 9.6 6 15.9 99880 92
2008-09-05 09:41 51°25.013 2°31.478 12.6 7 16 99880 92
2008-09-05 09:42 51°25.013 2°31.478 10.9 8 15.9 99880 92
2008-09-05 09:43 51°25.013 2°31.478 11.1 11 16 99880 92
2008-09-05 09:44 51°25.013 2°31.478 9.2 8 16 99880 91
2008-09-05 09:45 51°25.011 2°31.48 9.3 8 16 99880 91
2008-09-05 09:46 51°25.009 2°31.482 11.7 8 16 99880 92
2008-09-05 09:47 51°25.008 2°31.481 12 12 16 99870 91
2008-09-05 09:48 51°25.009 2°31.479 13 9 16 99870 91
2008-09-05 09:49 51°25.009 2°31.48 11.3 9 16 99860 91
2008-09-05 09:50 51°25.009 2°31.481 13.2 13 16 99860 91
2008-09-05 09:51 51°25.008 2°31.481 12.1 12 16 99860 91
2008-09-05 09:52 51°25.007 2°31.482 13 11 16 99860 90
2008-09-05 09:53 51°25.006 2°31.483 12 12 16 99850 90
2008-09-05 09:54 51°25.005 2°31.484 10.9 12 16.1 99850 91
2008-09-05 09:55 51°25.003 2°31.488 11.1 10 16.1 99850 90
2008-09-05 09:56 51°25.003 2°31.503 13.1 9 16.1 99850 91
2008-09-05 09:57 51°25.004 2°31.518 8 6 16.1 99850 91
2008-09-05 09:58 51°25.003 2°31.538 14.5 10 16.1 99850 92
2008-09-05 09:59 51°25.002 2°31.545 11.3 12 16.1 99840 91
2008-09-05 10:00 51°25 2°31.538 9.8 8 16.1 99850 92
2008-09-05 10:01 51°25.004 2°31.554 12 16 16.1 99840 91
2008-09-05 10:02 51°25.009 2°31.562 11.1 19 16.1 99840 91
2008-09-05 10:03 51°25.009 2°31.552 10.8 15 16.1 99850 91
2008-09-05 10:04 51°25.007 2°31.533 13.3 7 16.1 99850 92
2008-09-05 10:05 51°25.005 2°31.512 12.4 10 16 99850 90
2008-09-05 10:06 51°25.005 2°31.495 9.1 14 16.1 99850 91
2008-09-05 10:07 51°25.053 2°31.48 7.9 82 16.1 99860 92
2008-09-05 10:08 51°25.039 2°31.333 10.1 282 16.2 99870 92
2008-09-05 10:09 51°24.954 2°31.284 12 278 16.2 99850 91
2008-09-05 10:10 51°24.923 2°31.335 12.6 12 16.2 99830 91
2008-09-05 10:11 51°24.929 2°31.417 9.7 5 16.2 99840 91
2008-09-05 10:12 51°24.915 2°31.509 10.6 358 16.1 99840 91
2008-09-05 10:13 51°24.911 2°31.609 13.4 9 16.2 99830 91
2008-09-05 10:14 51°24.902 2°31.69 12.5 12 16.1 99840 91
2008-09-05 10:15 51°24.909 2°31.734 11.4 12 16.1 99840 91
2008-09-05 10:16 51°24.915 2°31.771 10.5 13 16.1 99850 91
2008-09-05 10:17 51°24.915 2°31.779 9.5 12 16.2 99850 92
2008-09-05 10:18 51°24.912 2°31.75 9.6 19 16.2 99850 93
2008-09-05 10:19 51°24.911 2°31.722 9.6 23 16.2 99840 91
2008-09-05 10:20 51°24.91 2°31.701 9.3 17 16.1 99840 92
2008-09-05 10:21 51°24.908 2°31.708 10.6 8 16.2 99840 92
2008-09-05 10:22 51°24.905 2°31.709 9.9 7 16.1 99840 91
2008-09-05 10:23 51°24.901 2°31.709 7.4 7 16.1 99840 92
2008-09-05 10:24 51°24.899 2°31.712 9.6 6 16.2 99850 92
2008-09-05 10:25 51°24.896 2°31.713 8.7 6 16.2 99840 92
2008-09-05 10:26 51°24.894 2°31.715 11 10 16.2 99840 92
2008-09-05 10:27 51°24.892 2°31.718 10.1 8 16.2 99840 92
2008-09-05 10:28 51°24.892 2°31.717 10.8 11 16.2 99840 92
2008-09-05 10:29 51°24.891 2°31.716 12.7 9 16.1 99830 91
2008-09-05 10:30 51°24.89 2°31.718 8.2 16 16.2 99830 92
2008-09-05 10:31 51°24.888 2°31.722 10.7 8 16.2 99840 92
2008-09-05 10:32 51°24.886 2°31.725 10.7 8 16.2 99840 92
2008-09-05 10:33 51°24.884 2°31.727 10.4 10 16.2 99840 92
2008-09-05 10:34 51°24.884 2°31.726 10 16 16.2 99840 93
2008-09-05 10:35 51°24.885 2°31.725 9.8 14 16.2 99840 92
2008-09-05 10:36 51°24.886 2°31.725 12.4 12 16.2 99840 92
2008-09-05 10:37 51°24.887 2°31.722 11.5 12 16.2 99840 92
2008-09-05 10:38 51°24.887 2°31.721 13.2 12 16.2 99830 92
2008-09-05 10:39 51°24.889 2°31.72 12.1 10 16.2 99830 92
2008-09-05 10:40 51°24.891 2°31.717 12.7 12 16.2 99830 92
2008-09-05 10:41 51°24.891 2°31.716 11.3 11 16.2 99830 92
2008-09-05 10:42 51°24.891 2°31.717 11.8 11 16.2 99820 92
2008-09-05 10:43 51°24.892 2°31.715 10.6 11 16.2 99820 92
2008-09-05 10:44 51°24.892 2°31.715 10.8 9 16.3 99830 92
2008-09-05 10:45 51°24.893 2°31.715 11.6 12 16.3 99820 92
2008-09-05 10:46 51°24.893 2°31.715 10.3 10 16.3 99820 92
2008-09-05 10:47 51°24.892 2°31.715 10.6 10 16.3 99820 92
2008-09-05 10:48 51°24.89 2°31.719 9.7 8 16.3 99810 92
2008-09-05 10:49 51°24.889 2°31.72 9.5 8 16.3 99820 92
2008-09-05 10:50 51°24.89 2°31.719 10.6 10 16.3 99810 92
2008-09-05 10:51 51°24.893 2°31.715 9.5 17 16.3 99810 92
2008-09-05 10:52 51°24.895 2°31.712 11.6 10 16.4 99800 92
2008-09-05 10:53 51°24.896 2°31.713 11.3 8 16.3 99800 92
2008-09-05 10:54 51°24.897 2°31.713 11.3 9 16.4 99810 92
2008-09-05 10:55 51°24.898 2°31.711 7.9 7 16.3 99800 91
2008-09-05 10:56 51°24.896 2°31.712 9.4 11 16.4 99800 91
2008-09-05 10:57 51°24.894 2°31.714 6.3 5 16.5 99810 92
2008-09-05 10:58 51°24.892 2°31.715 7.9 7 16.5 99800 92
2008-09-05 10:59 51°24.891 2°31.716 9.9 8 16.4 99790 92
2008-09-05 11:00 51°24.891 2°31.717 10.2 7 16.4 99790 91
2008-09-05 11:01 51°24.889 2°31.719 10.8 7 16.4 99790 93
2008-09-05 11:02 51°24.89 2°31.719 10.8 10 16.4 99790 92
2008-09-05 11:03 51°24.891 2°31.718 12.7 10 16.3 99780 91
2008-09-05 11:04 51°24.891 2°31.716 9.2 5 16.4 99790 92
2008-09-05 11:05 51°24.892 2°31.716 9 9 16.4 99790 92
2008-09-05 11:06 51°24.891 2°31.717 7.2 4 16.5 99790 93
2008-09-05 11:07 51°24.89 2°31.719 8.1 6 16.4 99790 92
2008-09-05 11:08 51°24.888 2°31.721 11.3 8 16.4 99780 92
2008-09-05 11:09 51°24.889 2°31.722 12.7 11 16.4 99780 91
2008-09-05 11:10 51°24.889 2°31.722 10.6 8 16.3 99780 90
2008-09-05 11:11 51°24.89 2°31.719 10 8 16.5 99780 92
2008-09-05 11:12 51°24.892 2°31.718 10.1 5 16.5 99770 92
2008-09-05 11:13 51°24.892 2°31.719 9.3 6 16.4 99780 92
2008-09-05 11:14 51°24.891 2°31.719 7.5 5 16.4 99770 91
2008-09-05 11:15 51°24.891 2°31.718 6.9 3 16.4 99770 92
2008-09-05 11:16 51°24.892 2°31.717 10.9 8 16.4 99770 92
2008-09-05 11:17 51°24.892 2°31.717 8.2 4 16.4 99780 92
2008-09-05 11:18 51°24.893 2°31.715 7.4 4 16.4 99760 92
2008-09-05 11:19 51°24.895 2°31.713 7.4 5 16.5 99770 92
2008-09-05 11:20 51°24.895 2°31.712 7 4 16.5 99770 93
2008-09-05 11:21 51°24.896 2°31.712 9.2 5 16.5 99770 93
2008-09-05 11:22 51°24.895 2°31.713 8.5 7 16.5 99770 93
2008-09-05 11:23 51°24.895 2°31.713 9.5 5 16.4 99760 93
2008-09-05 11:24 51°24.894 2°31.712 9.3 8 16.4 99760 92
2008-09-05 11:25 51°24.894 2°31.714 9.2 4 16.4 99750 91
2008-09-05 11:26 51°24.894 2°31.715 9.7 4 16.4 99750 91
2008-09-05 11:27 51°24.893 2°31.716 9 7 16.4 99760 92
2008-09-05 11:28 51°24.893 2°31.716 10.2 4 16.4 99750 91
2008-09-05 11:29 51°24.894 2°31.715 9.5 2 16.4 99740 91
2008-09-05 11:30 51°24.895 2°31.716 10.7 358 16.4 99750 91
2008-09-05 11:31 51°24.895 2°31.715 8.7 3 16.4 99740 90
2008-09-05 11:32 51°24.896 2°31.714 8 1 16.4 99730 91
2008-09-05 11:33 51°24.895 2°31.715 8 5 16.5 99730 92
2008-09-05 11:34 51°24.894 2°31.716 8.5 6 16.6 99740 93
2008-09-05 11:35 51°24.894 2°31.716 8.9 3 16.5 99730 92
2008-09-05 11:36 51°24.894 2°31.715 10.1 3 16.5 99730 93
2008-09-05 11:37 51°24.894 2°31.715 9.8 3 16.5 99720 92
2008-09-05 11:38 51°24.896 2°31.712 10.1 4 16.5 99720 93
2008-09-05 11:39 51°24.9 2°31.71 10.6 7 16.4 99720 92
2008-09-05 11:40 51°24.903 2°31.709 10.3 8 16.4 99720 93
2008-09-05 11:41 51°24.905 2°31.71 10.9 5 16.5 99730 94
2008-09-05 11:42 51°24.907 2°31.709 10.3 4 16.5 99720 95
2008-09-05 11:43 51°24.907 2°31.709 8.7 5 16.4 99720 94
2008-09-05 11:44 51°24.908 2°31.709 9.6 6 16.4 99720 95
2008-09-05 11:45 51°24.911 2°31.707 9.2 5 16.4 99710 94
2008-09-05 11:46 51°24.912 2°31.707 10.1 3 16.3 99700 95
2008-09-05 11:47 51°24.913 2°31.708 9.4 6 16.3 99700 95
2008-09-05 11:48 51°24.912 2°31.709 11 1 16.3 99710 95
2008-09-05 11:49 51°24.911 2°31.708 11.9 359 16.3 99710 95
2008-09-05 11:50 51°24.912 2°31.707 11.7 6 16.2 99700 95
2008-09-05 11:51 51°24.912 2°31.708 10.6 5 16.2 99700 95
2008-09-05 11:52 51°24.914 2°31.709 10.9 6 16.2 99700 96
2008-09-05 11:53 51°24.914 2°31.708 11 2 16.2 99700 95
2008-09-05 11:54 51°24.914 2°31.707 10.9 4 16.2 99700 95
2008-09-05 11:55 51°24.912 2°31.708 10.3 356 16.2 99690 95
2008-09-05 11:56 51°24.911 2°31.708 10.3 2 16.2 99690 96
2008-09-05 11:57 51°24.912 2°31.707 9.4 4 16.1 99690 95
2008-09-05 11:58 51°24.912 2°31.708 9.6 1 16.1 99690 95
2008-09-05 11:59 51°24.91 2°31.709 8.9 4 16.1 99690 95
2008-09-05 12:00 51°24.909 2°31.71 10.3 360 16.1 99680 95
2008-09-05 12:01 51°24.908 2°31.71 10.2 3 16.1 99680 95
2008-09-05 12:02 51°24.907 2°31.709 10.2 5 16.2 99690 95
2008-09-05 12:03 51°24.907 2°31.708 9 5 16.1 99680 94
2008-09-05 12:04 51°24.907 2°31.709 9.6 3 16.1 99680 95
2008-09-05 12:05 51°24.908 2°31.71 8.9 1 16.1 99680 94
2008-09-05 12:06 51°24.91 2°31.708 9.5 5 16.1 99670 94
2008-09-05 12:07 51°24.91 2°31.708 11.9 358 16.1 99670 94
2008-09-05 12:08 51°24.909 2°31.709 9.4 358 16.1 99670 95
2008-09-05 12:09 51°24.908 2°31.709 11.9 358 16.1 99660 95
2008-09-05 12:10 51°24.908 2°31.708 11.6 360 16.1 99660 95
2008-09-05 12:11 51°24.909 2°31.708 9.3 4 16 99660 94
2008-09-05 12:12 51°24.911 2°31.709 9.2 2 16.1 99660 95
2008-09-05 12:13 51°24.913 2°31.708 8.2 4 16.1 99660 95
2008-09-05 12:14 51°24.915 2°31.708 8.9 360 16.2 99660 96
2008-09-05 12:15 51°24.915 2°31.709 10.3 1 16.1 99650 95
2008-09-05 12:16 51°24.915 2°31.709 10.9 -999 16.1 99650 96
2008-09-05 12:17 51°24.914 2°31.708 8.8 354 16.1 99650 96
2008-09-05 12:18 51°24.913 2°31.709 9.4 357 16.1 99650 97
2008-09-05 12:19 51°24.914 2°31.71 11.3 360 16.1 99640 96
2008-09-05 12:20 51°24.915 2°31.708 9.5 356 16 99650 96
2008-09-05 12:21 51°24.916 2°31.711 9.6 356 16.1 99650 97
2008-09-05 12:22 51°24.915 2°31.711 9.9 357 16.1 99640 96
2008-09-05 12:23 51°24.915 2°31.711 10.3 357 16.1 99640 97
2008-09-05 12:24 51°24.915 2°31.709 10.3 355 16.1 99630 97
2008-09-05 12:25 51°24.917 2°31.707 8.2 1 16.1 99630 97
2008-09-05 12:26 51°24.919 2°31.712 10.8 360 16.2 99630 98
2008-09-05 12:27 51°24.919 2°31.713 9.4 357 16 99620 97
2008-09-05 12:28 51°24.918 2°31.709 11.3 356 16.1 99630 98
2008-09-05 12:29 51°24.919 2°31.707 8 354 16.1 99610 97
2008-09-05 12:30 51°24.919 2°31.712 8.3 352 16.1 99620 98
2008-09-05 12:31 51°24.918 2°31.712 9.8 355 16.1 99610 98
2008-09-05 12:32 51°24.918 2°31.709 9.5 355 16.1 99610 98
2008-09-05 12:33 51°24.919 2°31.708 10.2 351 16.1 99600 98
2008-09-05 12:34 51°24.92 2°31.71 9.6 356 16 99610 98
2008-09-05 12:35 51°24.921 2°31.712 9.3 352 16.1 99610 98
2008-09-05 12:36 51°24.922 2°31.709 10.6 353 16.1 99600 98
2008-09-05 12:37 51°24.922 2°31.71 8.7 351 16.1 99610 98
2008-09-05 12:38 51°24.921 2°31.712 11.2 353 16.1 99610 98
2008-09-05 12:39 51°24.923 2°31.71 9.6 352 16.1 99600 98
2008-09-05 12:40 51°24.923 2°31.711 10.1 352 16.1 99590 98
2008-09-05 12:41 51°24.924 2°31.711 10 352 16.1 99590 98
2008-09-05 12:42 51°24.925 2°31.713 11.8 351 16.1 99590 97
2008-09-05 12:43 51°24.926 2°31.713 9.6 348 16.1 99590 97
2008-09-05 12:44 51°24.927 2°31.712 10.2 352 16.1 99580 97
2008-09-05 12:45 51°24.926 2°31.713 9.6 349 16.1 99590 98
2008-09-05 12:46 51°24.927 2°31.714 10.4 349 16 99580 97
2008-09-05 12:47 51°24.928 2°31.712 10.1 351 16 99580 97
2008-09-05 12:48 51°24.93 2°31.714 11.7 348 16 99570 97
2008-09-05 12:49 51°24.93 2°31.715 10.2 350 16 99580 97
2008-09-05 12:50 51°24.932 2°31.714 10.8 353 16 99570 97
2008-09-05 12:51 51°24.934 2°31.716 9.9 346 16 99560 97
2008-09-05 12:52 51°24.935 2°31.72 10.6 351 16.1 99570 98
2008-09-05 12:53 51°24.939 2°31.719 11.7 284 16.1 99560 97
2008-09-05 12:54 51°24.94 2°31.718 9.4 279 16.1 99570 97
2008-09-05 12:55 51°24.939 2°31.723 10.4 340 16.1 99560 97
2008-09-05 12:56 51°24.941 2°31.721 11.2 280 16.1 99560 97
2008-09-05 12:57 51°24.942 2°31.72 11 347 16.2 99560 98
2008-09-05 12:58 51°24.942 2°31.723 12.6 279 16.2 99560 98
2008-09-05 12:59 51°24.942 2°31.722 10.3 341 16.1 99560 98
2008-09-05 13:00 51°24.941 2°31.719 11 278 16.1 99560 98
2008-09-05 13:01 51°24.941 2°31.722 10.2 335 16.1 99550 98
2008-09-05 13:02 51°24.938 2°31.729 8.7 335 16.1 99570 98
2008-09-05 13:03 51°24.934 2°31.743 9 283 16.1 99560 98
2008-09-05 13:04 51°24.93 2°31.754 11.4 338 16.2 99560 99
2008-09-05 13:05 51°24.925 2°31.767 9 281 16.1 99550 98
2008-09-05 13:06 51°24.92 2°31.779 10.2 335 16.1 99550 99
2008-09-05 13:07 51°24.913 2°31.795 12.3 282 16.1 99550 99
2008-09-05 13:08 51°24.9 2°31.81 12.2 329 16.1 99540 99
2008-09-05 13:09 51°24.896 2°31.878 12.2 9 16 99530 99
2008-09-05 13:10 51°24.952 2°31.891 7.3 57 16.1 99540 99
2008-09-05 13:11 51°24.962 2°31.786 10.3 306 16.1 99570 99
2008-09-05 13:12 51°24.934 2°31.731 11.8 280 16.1 99550 99
2008-09-05 13:13 51°24.902 2°31.692 11.6 309 16.1 99520 99
2008-09-05 13:14 51°24.862 2°31.649 13 278 16.1 99520 99
2008-09-05 13:15 51°24.83 2°31.61 13.2 307 16.1 99540 99
2008-09-05 13:16 51°24.843 2°31.594 11.6 308 16 99550 99
2008-09-05 13:17 51°24.858 2°31.588 12.5 308 16 99560 99
2008-09-05 13:18 51°24.87 2°31.588 10.4 304 15.9 99570 98
2008-09-05 13:19 51°24.875 2°31.587 11.7 308 15.9 99560 99
2008-09-05 13:20 51°24.873 2°31.574 11.8 300 16 99550 99
2008-09-05 13:21 51°24.869 2°31.559 11 281 16 99520 99
2008-09-05 13:22 51°24.864 2°31.545 13.6 305 16 99520 99
2008-09-05 13:23 51°24.86 2°31.536 13.1 324 16 99520 98
2008-09-05 13:24 51°24.86 2°31.535 11 344 16 99530 98
2008-09-05 13:25 51°24.864 2°31.54 10.8 344 16.1 99530 99
2008-09-05 13:26 51°24.868 2°31.552 9.8 349 16.1 99530 99
2008-09-05 13:27 51°24.872 2°31.565 10.1 343 16.1 99520 99
2008-09-05 13:28 51°24.872 2°31.57 10.3 332 16.2 99520 99
2008-09-05 13:29 51°24.872 2°31.569 10.5 325 16.2 99540 99
2008-09-05 13:30 51°24.872 2°31.562 11.3 281 16.1 99520 99
2008-09-05 13:31 51°24.867 2°31.554 11.2 302 16.2 99510 99
2008-09-05 13:32 51°24.863 2°31.545 10.6 284 16.1 99520 99
2008-09-05 13:33 51°24.86 2°31.539 11.1 304 16.1 99520 99
2008-09-05 13:34 51°24.859 2°31.538 11.4 285 16.1 99510 99
2008-09-05 13:35 51°24.861 2°31.541 11.6 333 16.1 99520 99
2008-09-05 13:36 51°24.866 2°31.545 10.7 344 16.1 99510 99
2008-09-05 13:37 51°24.87 2°31.555 13.2 344 16.1 99510 99
2008-09-05 13:38 51°24.874 2°31.569 12.3 340 16.1 99510 99
2008-09-05 13:39 51°24.873 2°31.579 13.6 282 16.1 99510 99
2008-09-05 13:40 51°24.874 2°31.578 12.4 305 16.1 99500 99
2008-09-05 13:41 51°24.872 2°31.568 13.9 283 16 99500 99
2008-09-05 13:42 51°24.868 2°31.557 11.4 304 16.1 99490 99
2008-09-05 13:43 51°24.867 2°31.551 11.7 302 16.1 99500 99
2008-09-05 13:44 51°24.867 2°31.55 10.5 301 16 99490 99
2008-09-05 13:45 51°24.867 2°31.551 12.7 303 16 99500 99
2008-09-05 13:46 51°24.868 2°31.554 9.5 328 16.1 99500 99
2008-09-05 13:47 51°24.869 2°31.557 12.2 326 16 99500 99
2008-09-05 13:48 51°24.871 2°31.56 11.4 281 16.1 99500 99
2008-09-05 13:49 51°24.87 2°31.564 10.1 323 16.1 99490 99
2008-09-05 13:50 51°24.872 2°31.566 9.6 303 16.1 99490 100
2008-09-05 13:51 51°24.872 2°31.564 13.6 303 16.1 99480 100
2008-09-05 13:52 51°24.87 2°31.56 11.2 302 16.1 99470 100
2008-09-05 13:53 51°24.868 2°31.555 11.5 279 16 99480 100
2008-09-05 13:54 51°24.863 2°31.558 12.3 305 16 99470 100
2008-09-05 13:55 51°24.854 2°31.569 10.7 280 16 99490 100
2008-09-05 13:56 51°24.852 2°31.576 12.2 283 16 99470 100
2008-09-05 13:57 51°24.844 2°31.581 13.2 280 16.1 99460 100
2008-09-05 13:58 51°24.829 2°31.591 12.3 304 16.1 99470 100
2008-09-05 13:59 51°24.829 2°31.593 11.7 302 16.1 99450 100
2008-09-05 14:00 51°24.821 2°31.592 13.9 281 16.1 99460 100
2008-09-05 14:01 51°24.808 2°31.59 12.8 310 16.1 99450 100
2008-09-05 14:02 51°24.782 2°31.641 14.5 350 16.1 99450 100
2008-09-05 14:03 51°24.828 2°31.721 10.3 31 16 99410 100
2008-09-05 14:04 51°24.858 2°31.737 11.2 34 16.2 99440 100
2008-09-05 14:05 51°24.853 2°31.733 9.7 39 16.2 99430 100
2008-09-05 14:06 51°24.859 2°31.734 10.9 40 16.2 99440 100
2008-09-05 14:07 51°24.872 2°31.735 11.9 38 16.2 99440 100
2008-09-05 14:08 51°24.888 2°31.737 10.3 32 16.2 99440 100
2008-09-05 14:09 51°24.901 2°31.738 11.6 25 16.3 99450 100
2008-09-05 14:10 51°24.904 2°31.719 11.2 13 16.3 99430 100
2008-09-05 14:11 51°24.908 2°31.699 10 355 16.3 99430 100
2008-09-05 14:12 51°24.914 2°31.704 9.7 279 16.3 99430 100
2008-09-05 14:13 51°24.914 2°31.72 10.3 278 16.3 99430 100
2008-09-05 14:14 51°24.917 2°31.725 11.4 284 16.3 99430 100
2008-09-05 14:15 51°24.915 2°31.729 12.6 303 16.3 99440 100
2008-09-05 14:16 51°24.918 2°31.728 12.2 307 16.2 99440 100
2008-09-05 14:17 51°24.914 2°31.729 12.4 308 16.2 99420 100
2008-09-05 14:18 51°24.916 2°31.729 11.6 277 16.2 99410 100
2008-09-05 14:19 51°24.917 2°31.727 14.4 277 16.2 99430 100
2008-09-05 14:20 51°24.915 2°31.727 12.7 306 16.2 99400 100
2008-09-05 14:21 51°24.916 2°31.726 16.6 281 16.2 99390 100
2008-09-05 14:22 51°24.915 2°31.726 13 308 16.2 99390 100
2008-09-05 14:23 51°24.916 2°31.725 12.9 283 16.2 99380 100
2008-09-05 14:24 51°24.915 2°31.728 15.7 304 16.3 99400 100
2008-09-05 14:25 51°24.917 2°31.729 15.8 282 16.3 99390 100
2008-09-05 14:26 51°24.915 2°31.73 13 301 16.3 99390 100
2008-09-05 14:27 51°24.916 2°31.73 12.2 278 16.3 99400 100
2008-09-05 14:28 51°24.915 2°31.735 13.4 310 16.4 99400 100
2008-09-05 14:29 51°24.918 2°31.739 14.5 279 16.4 99390 100
2008-09-05 14:30 51°24.916 2°31.74 15.7 302 16.3 99370 100
2008-09-05 14:31 51°24.917 2°31.741 15 306 16.4 99370 100
2008-09-05 14:32 51°24.917 2°31.742 11.7 303 16.3 99370 100
2008-09-05 14:33 51°24.916 2°31.742 12.7 305 16.4 99380 100
2008-09-05 14:34 51°24.913 2°31.745 13.4 282 16.4 99370 100
2008-09-05 14:35 51°24.908 2°31.747 15.3 305 16.3 99370 100
2008-09-05 14:36 51°24.907 2°31.748 14.5 282 16.4 99390 100
2008-09-05 14:37 51°24.908 2°31.75 15.2 281 16.3 99360 100
2008-09-05 14:38 51°24.906 2°31.75 11.8 303 16.4 99370 100
2008-09-05 14:39 51°24.909 2°31.748 13.8 281 16.3 99380 100
2008-09-05 14:40 51°24.908 2°31.748 12.2 302 16.3 99380 100
2008-09-05 14:41 51°24.909 2°31.75 13.9 285 16.4 99370 100
2008-09-05 14:42 51°24.906 2°31.75 16.1 303 16.3 99360 100
2008-09-05 14:43 51°24.899 2°31.754 14 279 16.4 99370 100
2008-09-05 14:44 51°24.889 2°31.756 13.4 301 16.4 99370 100
2008-09-05 14:45 51°24.883 2°31.758 11.9 308 16.5 99380 100
2008-09-05 14:46 51°24.892 2°31.761 15.6 303 16.5 99370 100
2008-09-05 14:47 51°24.915 2°31.766 13.5 300 16.4 99360 100
2008-09-05 14:48 51°24.943 2°31.779 12.5 285 16.4 99390 100
2008-09-05 14:49 51°24.97 2°31.791 15.8 304 16.5 99410 100
2008-09-05 14:50 51°24.972 2°31.767 15.9 281 16.4 99360 100
2008-09-05 14:51 51°24.937 2°31.79 14 337 16.5 99350 100
2008-09-05 14:52 51°24.848 2°31.916 18.1 280 16.5 99360 99
2008-09-05 14:53 51°24.699 2°32.091 19.9 281 16.5 99350 99
2008-09-05 14:54 51°24.549 2°32.287 18.4 283 16.6 99350 99
2008-09-05 14:55 51°24.408 2°32.501 19.1 284 16.6 99350 98
2008-09-05 14:56 51°24.26 2°32.724 16.7 336 16.7 99360 98
2008-09-05 14:57 51°24.112 2°32.938 20.5 282 16.7 99340 98
2008-09-05 14:58 51°23.967 2°33.15 19.7 281 16.7 99350 98
2008-09-05 14:59 51°23.828 2°33.363 15.6 281 16.7 99350 97
2008-09-05 15:00 51°23.682 2°33.585 17.7 280 16.7 99350 97
2008-09-05 15:01 51°23.538 2°33.799 18.7 280 16.7 99350 97
2008-09-05 15:02 51°23.377 2°33.959 16.7 282 16.7 99350 97
2008-09-05 15:03 51°23.203 2°34.068 20.2 330 16.8 99350 97
2008-09-05 15:04 51°23.028 2°34.179 18.1 283 16.8 99350 97
2008-09-05 15:05 51°22.855 2°34.293 18.9 278 16.7 99330 97
2008-09-05 15:06 51°22.683 2°34.406 18.4 283 16.7 99340 97
2008-09-05 15:07 51°22.504 2°34.521 20.4 280 16.8 99350 97
2008-09-05 15:08 51°22.331 2°34.632 17.1 279 16.8 99360 96
2008-09-05 15:09 51°22.152 2°34.753 18.8 333 16.8 99350 97
2008-09-05 15:10 51°21.978 2°34.882 17.9 334 16.8 99360 97
2008-09-05 15:11 51°21.813 2°35.044 15.6 282 16.8 99340 97
2008-09-05 15:12 51°21.657 2°35.235 18.6 278 16.7 99340 97
2008-09-05 15:13 51°21.511 2°35.451 17.6 284 16.7 99340 97
2008-09-05 15:14 51°21.375 2°35.692 18.6 282 16.8 99350 97
2008-09-05 15:15 51°21.243 2°35.938 16.4 280 16.8 99360 97
2008-09-05 15:16 51°21.106 2°36.179 17.7 282 16.7 99350 97
2008-09-05 15:17 51°20.972 2°36.428 15.5 280 16.8 99360 97
2008-09-05 15:18 51°20.84 2°36.681 18.9 280 16.8 99350 97
2008-09-05 15:19 51°20.708 2°36.924 15.2 346 16.8 99360 97
2008-09-05 15:20 51°20.575 2°37.172 18.1 280 16.8 99350 97
2008-09-05 15:21 51°20.444 2°37.428 18.1 341 16.8 99350 97
2008-09-05 15:22 51°20.32 2°37.688 19 282 16.8 99360 97
2008-09-05 15:23 51°20.194 2°37.944 17.1 283 16.8 99340 96
2008-09-05 15:24 51°20.069 2°38.202 16.3 342 16.8 99350 97
2008-09-05 15:25 51°19.947 2°38.462 15.5 280 16.8 99350 97
2008-09-05 15:26 51°19.826 2°38.724 14.6 341 16.8 99350 97
2008-09-05 15:27 51°19.705 2°38.977 17.1 278 16.8 99350 97
2008-09-05 15:28 51°19.581 2°39.241 15.9 343 16.8 99350 97
2008-09-05 15:29 51°19.457 2°39.492 17.1 280 16.8 99350 97
2008-09-05 15:30 51°19.337 2°39.742 15.8 341 16.7 99350 98
2008-09-05 15:31 51°19.219 2°40.005 15.3 278 16.7 99340 98
2008-09-05 15:32 51°19.1 2°40.264 15.5 279 16.7 99350 98
2008-09-05 15:33 51°18.98 2°40.523 16.2 340 16.7 99350 98
2008-09-05 15:34 51°18.863 2°40.792 17.5 280 16.7 99340 98
2008-09-05 15:35 51°18.735 2°41.049 19.9 342 16.7 99350 98
2008-09-05 15:36 51°18.607 2°41.306 17.2 281 16.7 99350 98
2008-09-05 15:37 51°18.48 2°41.562 17.2 278 16.7 99360 98
2008-09-05 15:38 51°18.357 2°41.823 19 284 16.7 99360 98
2008-09-05 15:39 51°18.236 2°42.085 19.4 281 16.7 99360 98
2008-09-05 15:40 51°18.116 2°42.344 19.8 343 16.8 99350 97
2008-09-05 15:41 51°17.996 2°42.6 18.2 344 16.8 99360 97
2008-09-05 15:42 51°17.871 2°42.842 19.3 339 16.8 99350 97
2008-09-05 15:43 51°17.744 2°43.094 16.1 281 16.8 99340 96
2008-09-05 15:44 51°17.615 2°43.335 20.1 339 16.8 99350 96
2008-09-05 15:45 51°17.483 2°43.587 18.5 281 16.8 99330 96
2008-09-05 15:46 51°17.355 2°43.837 19.2 342 16.8 99350 96
2008-09-05 15:47 51°17.23 2°44.08 15.1 282 16.8 99360 96
2008-09-05 15:48 51°17.098 2°44.326 18.3 283 16.9 99360 96
2008-09-05 15:49 51°16.969 2°44.567 18 280 16.9 99360 96
2008-09-05 15:50 51°16.844 2°44.811 18.1 281 16.9 99360 96
2008-09-05 15:51 51°16.716 2°45.05 18.6 341 16.9 99360 96
2008-09-05 15:52 51°16.592 2°45.292 16 341 16.8 99370 96
2008-09-05 15:53 51°16.469 2°45.536 16.9 346 16.9 99380 96
2008-09-05 15:54 51°16.366 2°45.801 16.3 350 16.9 99370 96
2008-09-05 15:55 51°16.261 2°46.079 16.6 348 16.9 99370 96
2008-09-05 15:56 51°16.189 2°46.38 15.9 352 16.9 99340 96
2008-09-05 15:57 51°16.119 2°46.701 18.2 349 16.9 99340 96
2008-09-05 15:58 51°16.051 2°47.021 17.4 350 16.9 99330 96
2008-09-05 15:59 51°15.985 2°47.337 15.1 349 16.9 99350 95
2008-09-05 16:00 51°15.924 2°47.665 17.9 352 17 99360 95
2008-09-05 16:01 51°15.859 2°47.997 17.4 353 17 99350 95
2008-09-05 16:02 51°15.795 2°48.321 16.7 352 16.9 99360 95
2008-09-05 16:03 51°15.731 2°48.637 14.8 349 17 99350 95
2008-09-05 16:04 51°15.664 2°48.952 15.9 352 17 99340 95
2008-09-05 16:05 51°15.596 2°49.273 16.5 352 17 99350 95
2008-09-05 16:06 51°15.532 2°49.588 16.2 351 17 99350 95
2008-09-05 16:07 51°15.466 2°49.915 16 351 17 99360 95
2008-09-05 16:08 51°15.407 2°50.241 13.9 351 17 99360 95
2008-09-05 16:09 51°15.361 2°50.574 15.2 352 17 99360 95
2008-09-05 16:10 51°15.312 2°50.904 13.4 350 17 99360 95
2008-09-05 16:11 51°15.231 2°51.21 15.9 347 16.9 99360 95
2008-09-05 16:12 51°15.139 2°51.506 14.5 350 17 99360 95
2008-09-05 16:13 51°15.054 2°51.804 14.3 353 16.9 99370 95
2008-09-05 16:14 51°14.968 2°52.114 12.2 353 16.9 99380 95
2008-09-05 16:15 51°14.894 2°52.417 14.1 357 16.9 99390 96
2008-09-05 16:16 51°14.831 2°52.738 12.9 352 16.9 99370 96
2008-09-05 16:17 51°14.763 2°53.04 14.1 349 16.9 99370 96
2008-09-05 16:18 51°14.701 2°53.359 12.3 351 16.9 99380 96
2008-09-05 16:19 51°14.642 2°53.668 11.9 354 16.8 99390 96
2008-09-05 16:20 51°14.583 2°53.989 12.5 348 16.8 99390 96
2008-09-05 16:21 51°14.518 2°54.313 11.7 347 16.7 99390 97
2008-09-05 16:22 51°14.454 2°54.625 10.2 346 16.7 99390 97
2008-09-05 16:23 51°14.383 2°54.943 13.3 347 16.7 99390 97
2008-09-05 16:24 51°14.279 2°55.209 12.2 338 16.6 99400 97